Time,TemperatureF,DewpointF,PressureIn,WindDirection,WindDirectionDegrees,WindSpeedMPH,WindSpeedGustMPH,Humidity,HourlyPrecipIn,Conditions,Clouds,dailyrainin,SoftwareType,DateUTC
2013-06-10 00:02:00,71.7,64.0,29.91,ESE,108,0.0,4.0,76,0.00,,,0.00,weatherlink.com 1.10,2013-06-10 04:02:00,
2013-06-10 00:18:00,70.3,64.0,29.91,South,171,1.0,7.0,81,0.00,,,0.00,weatherlink.com 1.10,2013-06-10 04:18:00,
2013-06-10 00:33:00,68.3,65.0,29.91,SE,132,1.0,3.0,88,0.03,,,0.03,weatherlink.com 1.10,2013-06-10 04:33:00,
2013-06-10 00:48:00,66.9,65.0,29.90,SE,134,0.0,2.0,92,0.08,,,0.08,weatherlink.com 1.10,2013-06-10 04:48:00,
2013-06-10 01:03:00,66.0,64.0,29.89,SSE,155,0.0,1.0,93,0.13,,,0.13,weatherlink.com 1.10,2013-06-10 05:03:00,
2013-06-10 01:18:00,65.5,64.0,29.90,SE,132,0.0,0.0,94,0.16,,,0.16,weatherlink.com 1.10,2013-06-10 05:18:00,
2013-06-10 01:33:00,65.2,64.0,29.89,SE,132,0.0,1.0,95,0.19,,,0.22,weatherlink.com 1.10,2013-06-10 05:33:00,
2013-06-10 01:48:00,65.0,64.0,29.88,SSE,158,0.0,1.0,95,0.21,,,0.29,weatherlink.com 1.10,2013-06-10 05:48:00,
2013-06-10 02:03:00,64.9,64.0,29.87,SE,141,0.0,1.0,96,0.23,,,0.36,weatherlink.com 1.10,2013-06-10 06:03:00,
2013-06-10 02:18:00,64.6,64.0,29.86,SE,127,0.0,2.0,96,0.22,,,0.38,weatherlink.com 1.10,2013-06-10 06:18:00,
2013-06-10 02:33:00,64.6,64.0,29.85,South,169,0.0,0.0,97,0.17,,,0.39,weatherlink.com 1.10,2013-06-10 06:33:00,
2013-06-10 02:48:00,64.9,64.0,29.85,SSE,163,0.0,1.0,97,0.10,,,0.40,weatherlink.com 1.10,2013-06-10 06:48:00,
2013-06-10 03:03:00,65.0,64.0,29.84,South,169,0.0,2.0,97,0.10,,,0.46,weatherlink.com 1.10,2013-06-10 07:03:00,
2013-06-10 03:18:00,65.0,65.0,29.83,South,187,0.0,1.0,98,0.11,,,0.49,weatherlink.com 1.10,2013-06-10 07:18:00,
2013-06-10 03:33:00,65.2,65.0,29.83,SSE,154,0.0,1.0,98,0.12,,,0.51,weatherlink.com 1.10,2013-06-10 07:33:00,
2013-06-10 03:48:00,65.2,65.0,29.83,SE,127,0.0,1.0,98,0.11,,,0.51,weatherlink.com 1.10,2013-06-10 07:48:00,
2013-06-10 04:03:00,65.3,65.0,29.82,SE,146,0.0,1.0,98,0.05,,,0.51,weatherlink.com 1.10,2013-06-10 08:03:00,
2013-06-10 04:18:00,65.5,65.0,29.81,SSE,155,0.0,1.0,98,0.03,,,0.52,weatherlink.com 1.10,2013-06-10 08:18:00,
2013-06-10 04:33:00,65.5,65.0,29.81,SSE,152,0.0,0.0,98,0.01,,,0.52,weatherlink.com 1.10,2013-06-10 08:33:00,
2013-06-10 04:48:00,65.6,65.0,29.80,SSE,152,0.0,0.0,98,0.01,,,0.52,weatherlink.com 1.10,2013-06-10 08:48:00,
2013-06-10 05:03:00,65.8,66.0,29.80,SE,132,0.0,1.0,99,0.01,,,0.52,weatherlink.com 1.10,2013-06-10 09:03:00,
2013-06-10 05:18:00,65.9,66.0,29.80,SSE,150,0.0,2.0,99,0.01,,,0.53,weatherlink.com 1.10,2013-06-10 09:18:00,
2013-06-10 05:33:00,65.9,66.0,29.81,SE,139,0.0,1.0,99,0.01,,,0.53,weatherlink.com 1.10,2013-06-10 09:33:00,
2013-06-10 05:48:00,65.8,66.0,29.80,SE,139,0.0,0.0,99,0.01,,,0.53,weatherlink.com 1.10,2013-06-10 09:48:00,
2013-06-10 06:03:00,65.8,66.0,29.80,SE,139,0.0,0.0,99,0.01,,,0.53,weatherlink.com 1.10,2013-06-10 10:03:00,
2013-06-10 06:18:00,65.6,65.0,29.80,ENE,60,0.0,1.0,99,0.00,,,0.53,weatherlink.com 1.10,2013-06-10 10:18:00,
2013-06-10 06:33:00,65.5,65.0,29.80,ENE,60,0.0,0.0,99,0.00,,,0.53,weatherlink.com 1.10,2013-06-10 10:33:00,
2013-06-10 06:48:00,65.5,65.0,29.80,ENE,66,0.0,0.0,99,0.00,,,0.53,weatherlink.com 1.10,2013-06-10 10:48:00,
2013-06-10 07:03:00,65.4,65.0,29.80,SE,130,0.0,0.0,99,0.00,,,0.53,weatherlink.com 1.10,2013-06-10 11:03:00,
2013-06-10 07:18:00,65.3,65.0,29.80,NE,55,0.0,1.0,99,0.00,,,0.53,weatherlink.com 1.10,2013-06-10 11:18:00,
2013-06-10 07:33:00,65.4,65.0,29.80,SE,128,0.0,1.0,99,0.00,,,0.53,weatherlink.com 1.10,2013-06-10 11:33:00,
2013-06-10 07:48:00,65.4,65.0,29.80,NE,43,0.0,1.0,99,0.00,,,0.53,weatherlink.com 1.10,2013-06-10 11:48:00,
2013-06-10 08:03:00,65.4,65.0,29.79,SSE,149,0.0,1.0,98,0.00,,,0.53,weatherlink.com 1.10,2013-06-10 12:03:00,
2013-06-10 08:18:00,65.6,65.0,29.79,ESE,102,0.0,1.0,98,0.00,,,0.53,weatherlink.com 1.10,2013-06-10 12:18:00,
2013-06-10 08:33:00,65.7,65.0,29.79,SE,141,0.0,2.0,98,0.00,,,0.53,weatherlink.com 1.10,2013-06-10 12:33:00,
2013-06-10 08:48:00,65.6,65.0,29.79,West,259,0.0,1.0,96,0.00,,,0.53,weatherlink.com 1.10,2013-06-10 12:48:00,
2013-06-10 09:03:00,65.7,65.0,29.79,NNE,13,0.0,1.0,96,0.00,,,0.53,weatherlink.com 1.10,2013-06-10 13:03:00,
2013-06-10 09:18:00,67.0,65.0,29.79,WSW,256,0.0,1.0,94,0.00,,,0.53,weatherlink.com 1.10,2013-06-10 13:18:00,
2013-06-10 09:33:00,67.5,66.0,29.79,West,278,0.0,1.0,93,0.00,,,0.53,weatherlink.com 1.10,2013-06-10 13:33:00,
2013-06-10 09:48:00,67.5,65.0,29.80,West,264,0.0,2.0,92,0.00,,,0.53,weatherlink.com 1.10,2013-06-10 13:48:00,
2013-06-10 10:03:00,66.9,65.0,29.80,NW,316,0.0,1.0,93,0.00,,,0.53,weatherlink.com 1.10,2013-06-10 14:03:00,
2013-06-10 10:18:00,66.7,65.0,29.80,West,264,0.0,1.0,94,0.00,,,0.53,weatherlink.com 1.10,2013-06-10 14:18:00,
2013-06-10 10:33:00,66.7,65.0,29.80,WNW,295,0.0,1.0,94,0.00,,,0.53,weatherlink.com 1.10,2013-06-10 14:33:00,
2013-06-10 10:48:00,67.0,66.0,29.80,WSW,253,0.0,1.0,95,0.00,,,0.53,weatherlink.com 1.10,2013-06-10 14:48:00,
2013-06-10 11:04:00,68.1,66.0,29.80,WNW,288,0.0,3.0,92,0.00,,,0.53,weatherlink.com 1.10,2013-06-10 15:04:00,
2013-06-10 11:19:00,68.7,66.0,29.80,WNW,288,0.0,1.0,91,0.00,,,0.53,weatherlink.com 1.10,2013-06-10 15:19:00,
2013-06-10 11:34:00,68.9,67.0,29.80,WNW,295,1.0,2.0,92,0.00,,,0.53,weatherlink.com 1.10,2013-06-10 15:34:00,
2013-06-10 11:49:00,69.6,67.0,29.79,NW,326,0.0,1.0,91,0.00,,,0.53,weatherlink.com 1.10,2013-06-10 15:49:00,
2013-06-10 12:04:00,70.9,68.0,29.79,West,266,0.0,2.0,89,0.00,,,0.53,weatherlink.com 1.10,2013-06-10 16:04:00,
2013-06-10 12:19:00,72.1,67.0,29.79,West,270,0.0,1.0,84,0.00,,,0.53,weatherlink.com 1.10,2013-06-10 16:19:00,
2013-06-10 12:34:00,73.0,68.0,29.79,West,271,0.0,2.0,83,0.00,,,0.53,weatherlink.com 1.10,2013-06-10 16:34:00,
2013-06-10 12:49:00,72.9,67.0,29.79,West,279,1.0,3.0,82,0.00,,,0.53,weatherlink.com 1.10,2013-06-10 16:49:00,
2013-06-10 13:04:00,72.6,67.0,29.79,WSW,248,1.0,4.0,82,0.00,,,0.53,weatherlink.com 1.10,2013-06-10 17:04:00,
2013-06-10 13:19:00,70.5,66.0,29.79,West,273,0.0,3.0,86,0.00,,,0.53,weatherlink.com 1.10,2013-06-10 17:19:00,
2013-06-10 13:34:00,69.7,67.0,29.79,West,276,1.0,2.0,90,0.00,,,0.53,weatherlink.com 1.10,2013-06-10 17:34:00,
2013-06-10 13:49:00,69.8,67.0,29.79,West,260,0.0,2.0,92,0.00,,,0.53,weatherlink.com 1.10,2013-06-10 17:49:00,
2013-06-10 14:04:00,70.3,68.0,29.79,West,263,0.0,1.0,91,0.00,,,0.53,weatherlink.com 1.10,2013-06-10 18:04:00,
2013-06-10 14:19:00,71.2,68.0,29.79,WNW,288,0.0,2.0,88,0.00,,,0.53,weatherlink.com 1.10,2013-06-10 18:19:00,
2013-06-10 14:34:00,71.7,66.0,29.80,WNW,288,1.0,4.0,82,0.00,,,0.53,weatherlink.com 1.10,2013-06-10 18:34:00,
2013-06-10 14:49:00,72.3,66.0,29.80,WNW,291,1.0,5.0,81,0.00,,,0.53,weatherlink.com 1.10,2013-06-10 18:49:00,
2013-06-10 15:04:00,71.3,66.0,29.80,WNW,285,1.0,7.0,83,0.00,,,0.53,weatherlink.com 1.10,2013-06-10 19:04:00,
2013-06-10 15:19:00,70.7,66.0,29.81,West,281,1.0,5.0,84,0.00,,,0.53,weatherlink.com 1.10,2013-06-10 19:19:00,
2013-06-10 15:34:00,71.4,67.0,29.80,WSW,256,0.0,4.0,85,0.00,,,0.53,weatherlink.com 1.10,2013-06-10 19:34:00,
2013-06-10 15:49:00,72.1,66.0,29.80,WSW,254,0.0,3.0,82,0.00,,,0.53,weatherlink.com 1.10,2013-06-10 19:49:00,
2013-06-10 16:04:00,72.6,67.0,29.80,West,277,0.0,3.0,81,0.00,,,0.53,weatherlink.com 1.10,2013-06-10 20:04:00,
2013-06-10 16:19:00,72.8,66.0,29.80,West,263,0.0,3.0,80,0.00,,,0.53,weatherlink.com 1.10,2013-06-10 20:19:00,
2013-06-10 16:34:00,74.6,66.0,29.79,WNW,285,1.0,4.0,74,0.00,,,0.53,weatherlink.com 1.10,2013-06-10 20:34:00,
2013-06-10 16:49:00,74.1,66.0,29.80,WSW,257,2.0,6.0,75,0.00,,,0.53,weatherlink.com 1.10,2013-06-10 20:49:00,
2013-06-10 17:04:00,74.0,67.0,29.80,West,266,0.0,4.0,78,0.00,,,0.53,weatherlink.com 1.10,2013-06-10 21:04:00,
2013-06-10 17:19:00,73.9,66.0,29.80,WNW,295,2.0,2.0,77,0.00,,,0.53,weatherlink.com 1.10,2013-06-10 21:19:00,
2013-06-10 17:34:00,73.6,66.0,29.80,West,274,0.0,4.0,76,0.00,,,0.53,weatherlink.com 1.10,2013-06-10 21:34:00,
2013-06-10 17:49:00,73.9,66.0,29.80,West,262,1.0,3.0,75,0.00,,,0.53,weatherlink.com 1.10,2013-06-10 21:49:00,
2013-06-10 18:04:00,73.9,67.0,29.80,West,267,4.0,4.0,78,0.00,,,0.53,weatherlink.com 1.10,2013-06-10 22:04:00,
2013-06-10 18:19:00,73.8,66.0,29.81,West,277,1.0,5.0,76,0.00,,,0.53,weatherlink.com 1.10,2013-06-10 22:19:00,
2013-06-10 18:34:00,73.5,66.0,29.82,West,269,2.0,3.0,78,0.00,,,0.53,weatherlink.com 1.10,2013-06-10 22:34:00,
2013-06-10 18:49:00,73.0,66.0,29.81,West,267,1.0,4.0,78,0.00,,,0.53,weatherlink.com 1.10,2013-06-10 22:49:00,
2013-06-10 19:04:00,72.0,65.0,29.82,WSW,257,1.0,4.0,79,0.00,,,0.53,weatherlink.com 1.10,2013-06-10 23:04:00,
2013-06-10 19:19:00,70.8,65.0,29.82,WSW,248,0.0,2.0,81,0.00,,,0.53,weatherlink.com 1.10,2013-06-10 23:19:00,
2013-06-10 19:34:00,70.1,64.0,29.83,WSW,250,0.0,1.0,82,0.00,,,0.53,weatherlink.com 1.10,2013-06-10 23:34:00,
2013-06-10 19:49:00,69.7,65.0,29.83,WSW,248,0.0,1.0,84,0.00,,,0.53,weatherlink.com 1.10,2013-06-10 23:49:00,
2013-06-10 20:04:00,69.4,64.0,29.83,WSW,252,1.0,3.0,83,0.00,,,0.53,weatherlink.com 1.10,2013-06-11 00:04:00,
2013-06-10 20:19:00,69.2,64.0,29.84,West,271,0.0,2.0,84,0.00,,,0.53,weatherlink.com 1.10,2013-06-11 00:19:00,
2013-06-10 20:34:00,68.5,64.0,29.84,West,277,0.0,1.0,86,0.00,,,0.53,weatherlink.com 1.10,2013-06-11 00:34:00,
2013-06-10 20:49:00,67.9,64.0,29.84,WSW,257,0.0,2.0,87,0.00,,,0.53,weatherlink.com 1.10,2013-06-11 00:49:00,
2013-06-10 21:04:00,67.3,64.0,29.84,West,273,0.0,1.0,88,0.00,,,0.53,weatherlink.com 1.10,2013-06-11 01:04:00,
2013-06-10 21:19:00,66.7,63.0,29.84,West,273,0.0,3.0,89,0.00,,,0.53,weatherlink.com 1.10,2013-06-11 01:19:00,
2013-06-10 21:34:00,66.1,63.0,29.85,West,274,0.0,3.0,89,0.00,,,0.53,weatherlink.com 1.10,2013-06-11 01:34:00,
2013-06-10 21:49:00,65.2,63.0,29.86,West,269,0.0,3.0,91,0.00,,,0.53,weatherlink.com 1.10,2013-06-11 01:49:00,
2013-06-10 22:04:00,64.8,63.0,29.86,West,281,0.0,2.0,92,0.00,,,0.53,weatherlink.com 1.10,2013-06-11 02:04:00,
2013-06-10 22:19:00,64.5,63.0,29.87,West,274,0.0,1.0,93,0.00,,,0.53,weatherlink.com 1.10,2013-06-11 02:19:00,
2013-06-10 22:34:00,64.3,62.0,29.87,West,259,0.0,0.0,93,0.00,,,0.53,weatherlink.com 1.10,2013-06-11 02:34:00,
2013-06-10 22:49:00,64.3,62.0,29.88,West,259,0.0,1.0,93,0.00,,,0.53,weatherlink.com 1.10,2013-06-11 02:49:00,
2013-06-10 23:04:00,64.3,63.0,29.88,West,260,0.0,1.0,94,0.00,,,0.53,weatherlink.com 1.10,2013-06-11 03:04:00,
2013-06-10 23:19:00,64.0,62.0,29.88,West,267,0.0,1.0,94,0.00,,,0.53,weatherlink.com 1.10,2013-06-11 03:19:00,
2013-06-10 23:34:00,63.9,62.0,29.89,West,271,0.0,0.0,94,0.00,,,0.53,weatherlink.com 1.10,2013-06-11 03:34:00,
2013-06-10 23:49:00,63.8,62.0,29.90,West,271,0.0,1.0,94,0.00,,,0.53,weatherlink.com 1.10,2013-06-11 03:49:00,